sensor_id;sensor_type;location;lat;lon;timestamp;P1;durP1;ratioP1;P2;durP2;ratioP2
23474;SDS011;11910;52.086;21.066;2023-12-07T00:00:21;65.20;;;32.67;;
23474;SDS011;11910;52.086;21.066;2023-12-07T00:02:47;65.55;;;33.28;;
23474;SDS011;11910;52.086;21.066;2023-12-07T00:05:12;68.20;;;33.85;;
23474;SDS011;11910;52.086;21.066;2023-12-07T00:07:38;69.45;;;34.70;;
23474;SDS011;11910;52.086;21.066;2023-12-07T00:10:04;63.83;;;32.10;;
23474;SDS011;11910;52.086;21.066;2023-12-07T00:12:30;64.97;;;32.20;;
23474;SDS011;11910;52.086;21.066;2023-12-07T00:14:56;64.32;;;33.45;;
23474;SDS011;11910;52.086;21.066;2023-12-07T00:17:22;66.80;;;32.47;;
23474;SDS011;11910;52.086;21.066;2023-12-07T00:19:49;64.55;;;33.63;;
23474;SDS011;11910;52.086;21.066;2023-12-07T00:22:16;63.97;;;31.58;;
23474;SDS011;11910;52.086;21.066;2023-12-07T00:24:41;66.97;;;33.85;;
23474;SDS011;11910;52.086;21.066;2023-12-07T00:27:07;67.38;;;33.65;;
23474;SDS011;11910;52.086;21.066;2023-12-07T00:29:32;62.05;;;31.40;;
23474;SDS011;11910;52.086;21.066;2023-12-07T00:31:58;63.55;;;31.17;;
23474;SDS011;11910;52.086;21.066;2023-12-07T00:34:23;62.47;;;31.10;;
23474;SDS011;11910;52.086;21.066;2023-12-07T00:36:49;65.30;;;32.55;;
23474;SDS011;11910;52.086;21.066;2023-12-07T00:39:15;65.25;;;33.03;;
23474;SDS011;11910;52.086;21.066;2023-12-07T00:41:41;67.68;;;33.20;;
23474;SDS011;11910;52.086;21.066;2023-12-07T00:44:07;65.10;;;31.30;;
23474;SDS011;11910;52.086;21.066;2023-12-07T00:46:33;62.67;;;31.88;;
23474;SDS011;11910;52.086;21.066;2023-12-07T00:48:58;69.53;;;32.10;;
23474;SDS011;11910;52.086;21.066;2023-12-07T00:51:24;63.88;;;31.92;;
23474;SDS011;11910;52.086;21.066;2023-12-07T00:53:50;71.15;;;32.95;;
23474;SDS011;11910;52.086;21.066;2023-12-07T00:56:15;65.53;;;32.60;;
23474;SDS011;11910;52.086;21.066;2023-12-07T00:58:41;64.32;;;32.92;;
23474;SDS011;11910;52.086;21.066;2023-12-07T01:01:06;70.57;;;33.58;;
23474;SDS011;11910;52.086;21.066;2023-12-07T01:03:33;68.85;;;32.13;;
23474;SDS011;11910;52.086;21.066;2023-12-07T01:05:58;70.28;;;32.60;;
23474;SDS011;11910;52.086;21.066;2023-12-07T01:08:24;67.40;;;31.88;;
23474;SDS011;11910;52.086;21.066;2023-12-07T01:10:50;65.07;;;31.63;;
23474;SDS011;11910;52.086;21.066;2023-12-07T01:13:15;71.80;;;32.58;;
23474;SDS011;11910;52.086;21.066;2023-12-07T01:15:41;72.85;;;32.10;;
23474;SDS011;11910;52.086;21.066;2023-12-07T01:18:06;67.15;;;32.35;;
23474;SDS011;11910;52.086;21.066;2023-12-07T01:20:32;75.15;;;31.90;;
23474;SDS011;11910;52.086;21.066;2023-12-07T01:22:58;73.60;;;32.78;;
23474;SDS011;11910;52.086;21.066;2023-12-07T01:25:23;70.40;;;32.97;;
23474;SDS011;11910;52.086;21.066;2023-12-07T01:27:49;72.28;;;33.10;;
23474;SDS011;11910;52.086;21.066;2023-12-07T01:30:14;68.90;;;31.52;;
23474;SDS011;11910;52.086;21.066;2023-12-07T01:32:40;70.70;;;31.83;;
23474;SDS011;11910;52.086;21.066;2023-12-07T01:35:06;76.93;;;33.60;;
23474;SDS011;11910;52.086;21.066;2023-12-07T01:37:32;71.55;;;32.08;;
23474;SDS011;11910;52.086;21.066;2023-12-07T01:39:58;78.00;;;32.83;;
23474;SDS011;11910;52.086;21.066;2023-12-07T01:42:23;72.18;;;33.08;;
23474;SDS011;11910;52.086;21.066;2023-12-07T01:44:49;75.43;;;32.47;;
23474;SDS011;11910;52.086;21.066;2023-12-07T01:47:14;76.82;;;32.90;;
23474;SDS011;11910;52.086;21.066;2023-12-07T01:49:40;79.45;;;33.08;;
23474;SDS011;11910;52.086;21.066;2023-12-07T01:52:06;77.53;;;32.75;;
23474;SDS011;11910;52.086;21.066;2023-12-07T01:54:33;78.93;;;32.72;;
23474;SDS011;11910;52.086;21.066;2023-12-07T01:56:59;75.80;;;33.08;;
23474;SDS011;11910;52.086;21.066;2023-12-07T01:59:25;79.13;;;33.90;;
23474;SDS011;11910;52.086;21.066;2023-12-07T02:01:51;82.57;;;33.92;;
23474;SDS011;11910;52.086;21.066;2023-12-07T02:04:16;78.63;;;32.13;;
23474;SDS011;11910;52.086;21.066;2023-12-07T02:06:42;73.45;;;32.20;;
23474;SDS011;11910;52.086;21.066;2023-12-07T02:09:08;85.30;;;33.33;;
23474;SDS011;11910;52.086;21.066;2023-12-07T02:11:34;79.60;;;31.88;;
23474;SDS011;11910;52.086;21.066;2023-12-07T02:13:59;75.07;;;32.53;;
23474;SDS011;11910;52.086;21.066;2023-12-07T02:16:30;71.57;;;31.63;;
23474;SDS011;11910;52.086;21.066;2023-12-07T02:22:14;74.32;;;32.47;;
23474;SDS011;11910;52.086;21.066;2023-12-07T02:27:36;78.13;;;31.48;;
23474;SDS011;11910;52.086;21.066;2023-12-07T02:30:02;80.18;;;32.40;;
23474;SDS011;11910;52.086;21.066;2023-12-07T02:32:29;86.80;;;34.13;;
23474;SDS011;11910;52.086;21.066;2023-12-07T02:34:55;83.15;;;33.03;;
23474;SDS011;11910;52.086;21.066;2023-12-07T02:37:21;82.53;;;32.20;;
23474;SDS011;11910;52.086;21.066;2023-12-07T02:39:49;88.07;;;32.97;;
23474;SDS011;11910;52.086;21.066;2023-12-07T02:42:17;84.88;;;33.05;;
23474;SDS011;11910;52.086;21.066;2023-12-07T02:44:45;75.78;;;31.75;;
23474;SDS011;11910;52.086;21.066;2023-12-07T02:47:11;85.10;;;32.42;;
23474;SDS011;11910;52.086;21.066;2023-12-07T02:49:37;78.70;;;32.55;;
23474;SDS011;11910;52.086;21.066;2023-12-07T02:52:02;75.15;;;32.20;;
23474;SDS011;11910;52.086;21.066;2023-12-07T02:54:28;78.40;;;31.58;;
23474;SDS011;11910;52.086;21.066;2023-12-07T02:56:53;79.82;;;32.17;;
23474;SDS011;11910;52.086;21.066;2023-12-07T02:59:19;81.13;;;32.70;;
23474;SDS011;11910;52.086;21.066;2023-12-07T03:01:44;70.30;;;31.35;;
23474;SDS011;11910;52.086;21.066;2023-12-07T03:04:10;83.95;;;32.33;;
23474;SDS011;11910;52.086;21.066;2023-12-07T03:06:36;86.63;;;32.75;;
23474;SDS011;11910;52.086;21.066;2023-12-07T03:09:01;89.97;;;33.15;;
23474;SDS011;11910;52.086;21.066;2023-12-07T03:11:28;81.10;;;32.15;;
23474;SDS011;11910;52.086;21.066;2023-12-07T03:13:53;78.30;;;33.28;;
23474;SDS011;11910;52.086;21.066;2023-12-07T03:16:19;78.72;;;32.50;;
23474;SDS011;11910;52.086;21.066;2023-12-07T03:18:45;80.35;;;32.67;;
23474;SDS011;11910;52.086;21.066;2023-12-07T03:21:10;81.78;;;31.95;;
23474;SDS011;11910;52.086;21.066;2023-12-07T03:23:36;80.05;;;32.53;;
23474;SDS011;11910;52.086;21.066;2023-12-07T03:26:02;74.13;;;31.63;;
23474;SDS011;11910;52.086;21.066;2023-12-07T03:28:27;78.35;;;32.10;;
23474;SDS011;11910;52.086;21.066;2023-12-07T03:30:53;78.93;;;32.22;;
23474;SDS011;11910;52.086;21.066;2023-12-07T03:33:18;85.22;;;32.47;;
23474;SDS011;11910;52.086;21.066;2023-12-07T03:35:44;74.88;;;31.10;;
23474;SDS011;11910;52.086;21.066;2023-12-07T03:38:09;81.93;;;32.55;;
23474;SDS011;11910;52.086;21.066;2023-12-07T03:40:35;82.22;;;31.92;;
23474;SDS011;11910;52.086;21.066;2023-12-07T03:43:01;77.00;;;31.67;;
23474;SDS011;11910;52.086;21.066;2023-12-07T03:45:29;77.55;;;32.80;;
23474;SDS011;11910;52.086;21.066;2023-12-07T03:47:54;87.63;;;33.83;;
23474;SDS011;11910;52.086;21.066;2023-12-07T03:50:20;84.30;;;32.45;;
23474;SDS011;11910;52.086;21.066;2023-12-07T03:52:46;80.60;;;32.42;;
23474;SDS011;11910;52.086;21.066;2023-12-07T03:55:12;79.35;;;31.13;;
23474;SDS011;11910;52.086;21.066;2023-12-07T03:57:37;83.93;;;33.45;;
23474;SDS011;11910;52.086;21.066;2023-12-07T04:00:03;78.28;;;32.33;;
23474;SDS011;11910;52.086;21.066;2023-12-07T04:02:32;74.45;;;32.25;;
23474;SDS011;11910;52.086;21.066;2023-12-07T04:04:58;80.82;;;32.95;;
23474;SDS011;11910;52.086;21.066;2023-12-07T04:07:27;76.80;;;30.88;;
23474;SDS011;11910;52.086;21.066;2023-12-07T04:09:54;80.45;;;31.75;;
23474;SDS011;11910;52.086;21.066;2023-12-07T04:12:21;75.03;;;31.10;;
23474;SDS011;11910;52.086;21.066;2023-12-07T04:14:48;76.95;;;31.75;;
23474;SDS011;11910;52.086;21.066;2023-12-07T04:17:14;75.00;;;31.33;;
23474;SDS011;11910;52.086;21.066;2023-12-07T04:19:40;72.78;;;31.48;;
23474;SDS011;11910;52.086;21.066;2023-12-07T04:22:05;72.88;;;31.63;;
23474;SDS011;11910;52.086;21.066;2023-12-07T04:24:31;72.50;;;30.98;;
23474;SDS011;11910;52.086;21.066;2023-12-07T04:26:57;74.75;;;30.83;;
23474;SDS011;11910;52.086;21.066;2023-12-07T04:29:22;75.47;;;32.13;;
23474;SDS011;11910;52.086;21.066;2023-12-07T04:31:48;75.18;;;31.77;;
23474;SDS011;11910;52.086;21.066;2023-12-07T04:34:13;72.75;;;30.98;;
23474;SDS011;11910;52.086;21.066;2023-12-07T04:36:39;71.82;;;30.35;;
23474;SDS011;11910;52.086;21.066;2023-12-07T04:39:04;66.22;;;28.95;;
23474;SDS011;11910;52.086;21.066;2023-12-07T04:41:30;70.72;;;30.00;;
23474;SDS011;11910;52.086;21.066;2023-12-07T04:43:56;72.40;;;30.50;;
23474;SDS011;11910;52.086;21.066;2023-12-07T04:46:21;70.65;;;29.98;;
23474;SDS011;11910;52.086;21.066;2023-12-07T04:48:47;70.22;;;30.67;;
23474;SDS011;11910;52.086;21.066;2023-12-07T04:51:13;70.88;;;30.30;;
23474;SDS011;11910;52.086;21.066;2023-12-07T04:53:38;66.47;;;29.50;;
23474;SDS011;11910;52.086;21.066;2023-12-07T04:56:04;62.83;;;28.35;;
23474;SDS011;11910;52.086;21.066;2023-12-07T04:58:30;57.97;;;26.90;;
23474;SDS011;11910;52.086;21.066;2023-12-07T05:00:56;61.45;;;28.92;;
23474;SDS011;11910;52.086;21.066;2023-12-07T05:03:22;61.17;;;28.55;;
23474;SDS011;11910;52.086;21.066;2023-12-07T05:05:47;63.97;;;28.65;;
23474;SDS011;11910;52.086;21.066;2023-12-07T05:08:14;65.07;;;28.65;;
23474;SDS011;11910;52.086;21.066;2023-12-07T05:10:40;63.63;;;27.80;;
23474;SDS011;11910;52.086;21.066;2023-12-07T05:13:06;60.28;;;27.52;;
23474;SDS011;11910;52.086;21.066;2023-12-07T05:15:31;56.05;;;27.00;;
23474;SDS011;11910;52.086;21.066;2023-12-07T05:17:57;58.72;;;27.40;;
23474;SDS011;11910;52.086;21.066;2023-12-07T05:20:22;53.45;;;25.70;;
23474;SDS011;11910;52.086;21.066;2023-12-07T05:22:49;58.25;;;26.70;;
23474;SDS011;11910;52.086;21.066;2023-12-07T05:25:15;54.25;;;25.45;;
23474;SDS011;11910;52.086;21.066;2023-12-07T05:27:40;51.42;;;26.60;;
23474;SDS011;11910;52.086;21.066;2023-12-07T05:30:06;56.63;;;26.25;;
23474;SDS011;11910;52.086;21.066;2023-12-07T05:32:32;55.90;;;26.30;;
23474;SDS011;11910;52.086;21.066;2023-12-07T05:34:58;51.17;;;25.20;;
23474;SDS011;11910;52.086;21.066;2023-12-07T05:37:24;51.40;;;25.38;;
23474;SDS011;11910;52.086;21.066;2023-12-07T05:39:49;53.20;;;26.38;;
23474;SDS011;11910;52.086;21.066;2023-12-07T05:42:15;50.25;;;25.23;;
23474;SDS011;11910;52.086;21.066;2023-12-07T05:44:41;52.30;;;25.38;;
23474;SDS011;11910;52.086;21.066;2023-12-07T05:47:06;49.90;;;25.45;;
23474;SDS011;11910;52.086;21.066;2023-12-07T05:49:33;55.15;;;24.63;;
23474;SDS011;11910;52.086;21.066;2023-12-07T05:51:58;53.97;;;26.13;;
23474;SDS011;11910;52.086;21.066;2023-12-07T05:54:24;50.30;;;26.30;;
23474;SDS011;11910;52.086;21.066;2023-12-07T05:56:50;47.25;;;24.48;;
23474;SDS011;11910;52.086;21.066;2023-12-07T05:59:15;52.83;;;26.30;;
23474;SDS011;11910;52.086;21.066;2023-12-07T06:01:41;50.42;;;24.75;;
23474;SDS011;11910;52.086;21.066;2023-12-07T06:04:08;46.47;;;25.13;;
23474;SDS011;11910;52.086;21.066;2023-12-07T06:06:35;46.65;;;24.90;;
23474;SDS011;11910;52.086;21.066;2023-12-07T06:09:01;49.47;;;25.75;;
23474;SDS011;11910;52.086;21.066;2023-12-07T06:11:26;46.15;;;25.05;;
23474;SDS011;11910;52.086;21.066;2023-12-07T06:13:52;46.50;;;25.40;;
23474;SDS011;11910;52.086;21.066;2023-12-07T06:16:18;47.08;;;25.25;;
23474;SDS011;11910;52.086;21.066;2023-12-07T06:18:44;47.75;;;25.45;;
23474;SDS011;11910;52.086;21.066;2023-12-07T06:21:10;45.47;;;24.65;;
23474;SDS011;11910;52.086;21.066;2023-12-07T06:23:36;44.17;;;24.77;;
23474;SDS011;11910;52.086;21.066;2023-12-07T06:26:02;48.08;;;25.63;;
23474;SDS011;11910;52.086;21.066;2023-12-07T06:28:29;46.20;;;26.17;;
23474;SDS011;11910;52.086;21.066;2023-12-07T06:30:57;47.30;;;25.27;;
23474;SDS011;11910;52.086;21.066;2023-12-07T06:33:24;48.92;;;26.27;;
23474;SDS011;11910;52.086;21.066;2023-12-07T06:35:49;48.53;;;26.02;;
23474;SDS011;11910;52.086;21.066;2023-12-07T06:38:15;47.67;;;25.80;;
23474;SDS011;11910;52.086;21.066;2023-12-07T06:40:40;43.85;;;24.30;;
23474;SDS011;11910;52.086;21.066;2023-12-07T06:43:06;45.75;;;24.88;;
23474;SDS011;11910;52.086;21.066;2023-12-07T06:45:32;46.63;;;25.65;;
23474;SDS011;11910;52.086;21.066;2023-12-07T06:47:58;42.15;;;23.92;;
23474;SDS011;11910;52.086;21.066;2023-12-07T06:50:24;45.47;;;25.75;;
23474;SDS011;11910;52.086;21.066;2023-12-07T06:52:49;43.63;;;25.42;;
23474;SDS011;11910;52.086;21.066;2023-12-07T06:55:15;41.58;;;25.40;;
23474;SDS011;11910;52.086;21.066;2023-12-07T06:57:40;44.83;;;25.65;;
23474;SDS011;11910;52.086;21.066;2023-12-07T07:00:06;43.55;;;25.55;;
23474;SDS011;11910;52.086;21.066;2023-12-07T07:02:35;44.45;;;26.00;;
23474;SDS011;11910;52.086;21.066;2023-12-07T07:05:04;48.88;;;27.25;;
23474;SDS011;11910;52.086;21.066;2023-12-07T07:07:31;42.10;;;25.52;;
23474;SDS011;11910;52.086;21.066;2023-12-07T07:09:57;49.88;;;27.98;;
23474;SDS011;11910;52.086;21.066;2023-12-07T07:12:22;45.13;;;26.15;;
23474;SDS011;11910;52.086;21.066;2023-12-07T07:14:48;45.70;;;27.40;;
23474;SDS011;11910;52.086;21.066;2023-12-07T07:17:14;42.28;;;26.17;;
23474;SDS011;11910;52.086;21.066;2023-12-07T07:19:40;43.58;;;26.30;;
23474;SDS011;11910;52.086;21.066;2023-12-07T07:22:07;45.75;;;26.73;;
23474;SDS011;11910;52.086;21.066;2023-12-07T07:24:34;43.88;;;26.13;;
23474;SDS011;11910;52.086;21.066;2023-12-07T07:27:00;47.58;;;27.75;;
23474;SDS011;11910;52.086;21.066;2023-12-07T07:29:25;49.60;;;28.85;;
23474;SDS011;11910;52.086;21.066;2023-12-07T07:31:52;45.00;;;26.67;;
23474;SDS011;11910;52.086;21.066;2023-12-07T07:34:18;46.03;;;27.25;;
23474;SDS011;11910;52.086;21.066;2023-12-07T07:36:44;49.75;;;27.77;;
23474;SDS011;11910;52.086;21.066;2023-12-07T07:39:09;50.13;;;28.30;;
23474;SDS011;11910;52.086;21.066;2023-12-07T07:41:38;49.47;;;28.38;;
23474;SDS011;11910;52.086;21.066;2023-12-07T07:44:04;47.78;;;27.17;;
23474;SDS011;11910;52.086;21.066;2023-12-07T07:46:30;47.03;;;29.02;;
23474;SDS011;11910;52.086;21.066;2023-12-07T07:48:55;49.03;;;28.17;;
23474;SDS011;11910;52.086;21.066;2023-12-07T07:51:21;46.15;;;27.95;;
23474;SDS011;11910;52.086;21.066;2023-12-07T07:53:47;51.97;;;28.77;;
23474;SDS011;11910;52.086;21.066;2023-12-07T07:56:12;48.38;;;27.55;;
23474;SDS011;11910;52.086;21.066;2023-12-07T07:58:38;48.30;;;28.83;;
23474;SDS011;11910;52.086;21.066;2023-12-07T08:01:04;50.17;;;29.65;;
23474;SDS011;11910;52.086;21.066;2023-12-07T08:03:30;52.95;;;29.77;;
23474;SDS011;11910;52.086;21.066;2023-12-07T08:05:56;52.83;;;30.45;;
23474;SDS011;11910;52.086;21.066;2023-12-07T08:08:22;52.03;;;29.50;;
23474;SDS011;11910;52.086;21.066;2023-12-07T08:10:47;50.28;;;30.02;;
23474;SDS011;11910;52.086;21.066;2023-12-07T08:13:13;50.33;;;30.02;;
23474;SDS011;11910;52.086;21.066;2023-12-07T08:15:38;49.65;;;30.13;;
23474;SDS011;11910;52.086;21.066;2023-12-07T08:18:04;50.05;;;30.15;;
23474;SDS011;11910;52.086;21.066;2023-12-07T08:20:30;50.92;;;30.23;;
23474;SDS011;11910;52.086;21.066;2023-12-07T08:22:56;52.17;;;30.27;;
23474;SDS011;11910;52.086;21.066;2023-12-07T08:25:21;50.38;;;30.60;;
23474;SDS011;11910;52.086;21.066;2023-12-07T08:27:47;50.25;;;30.35;;
23474;SDS011;11910;52.086;21.066;2023-12-07T08:30:12;48.33;;;30.17;;
23474;SDS011;11910;52.086;21.066;2023-12-07T08:32:38;52.78;;;31.13;;
23474;SDS011;11910;52.086;21.066;2023-12-07T08:35:05;49.35;;;29.95;;
23474;SDS011;11910;52.086;21.066;2023-12-07T08:37:31;50.67;;;30.83;;
23474;SDS011;11910;52.086;21.066;2023-12-07T08:39:58;50.42;;;30.83;;
23474;SDS011;11910;52.086;21.066;2023-12-07T08:42:23;52.22;;;32.15;;
23474;SDS011;11910;52.086;21.066;2023-12-07T08:44:51;60.72;;;35.28;;
23474;SDS011;11910;52.086;21.066;2023-12-07T08:47:18;51.80;;;30.65;;
23474;SDS011;11910;52.086;21.066;2023-12-07T08:49:44;53.97;;;32.20;;
23474;SDS011;11910;52.086;21.066;2023-12-07T08:52:10;51.90;;;32.08;;
23474;SDS011;11910;52.086;21.066;2023-12-07T08:54:36;61.25;;;36.00;;
23474;SDS011;11910;52.086;21.066;2023-12-07T08:57:01;57.08;;;31.80;;
23474;SDS011;11910;52.086;21.066;2023-12-07T08:59:28;51.53;;;31.33;;
23474;SDS011;11910;52.086;21.066;2023-12-07T09:01:54;51.38;;;31.50;;
23474;SDS011;11910;52.086;21.066;2023-12-07T09:04:19;55.42;;;32.05;;
23474;SDS011;11910;52.086;21.066;2023-12-07T09:06:45;53.85;;;31.88;;
23474;SDS011;11910;52.086;21.066;2023-12-07T09:09:11;50.38;;;31.00;;
23474;SDS011;11910;52.086;21.066;2023-12-07T09:11:37;52.92;;;32.20;;
23474;SDS011;11910;52.086;21.066;2023-12-07T09:14:03;50.17;;;31.17;;
23474;SDS011;11910;52.086;21.066;2023-12-07T09:16:29;53.53;;;31.73;;
23474;SDS011;11910;52.086;21.066;2023-12-07T09:18:54;53.35;;;32.53;;
23474;SDS011;11910;52.086;21.066;2023-12-07T09:21:20;58.78;;;32.70;;
23474;SDS011;11910;52.086;21.066;2023-12-07T09:23:46;54.58;;;31.98;;
23474;SDS011;11910;52.086;21.066;2023-12-07T09:26:12;56.85;;;34.08;;
23474;SDS011;11910;52.086;21.066;2023-12-07T09:28:37;52.40;;;32.03;;
23474;SDS011;11910;52.086;21.066;2023-12-07T09:31:04;55.60;;;31.85;;
23474;SDS011;11910;52.086;21.066;2023-12-07T09:33:30;56.75;;;33.20;;
23474;SDS011;11910;52.086;21.066;2023-12-07T09:35:55;56.13;;;33.97;;
23474;SDS011;11910;52.086;21.066;2023-12-07T09:38:21;54.85;;;33.00;;
23474;SDS011;11910;52.086;21.066;2023-12-07T09:40:46;57.05;;;34.00;;
23474;SDS011;11910;52.086;21.066;2023-12-07T09:43:17;55.92;;;32.90;;
23474;SDS011;11910;52.086;21.066;2023-12-07T09:45:43;56.92;;;34.15;;
23474;SDS011;11910;52.086;21.066;2023-12-07T09:48:10;51.25;;;32.00;;
23474;SDS011;11910;52.086;21.066;2023-12-07T09:50:36;54.80;;;33.40;;
23474;SDS011;11910;52.086;21.066;2023-12-07T09:53:02;55.13;;;33.03;;
23474;SDS011;11910;52.086;21.066;2023-12-07T09:55:28;59.28;;;35.20;;
23474;SDS011;11910;52.086;21.066;2023-12-07T09:57:53;53.13;;;33.10;;
23474;SDS011;11910;52.086;21.066;2023-12-07T10:00:22;56.13;;;33.80;;
23474;SDS011;11910;52.086;21.066;2023-12-07T10:02:47;54.28;;;33.08;;
23474;SDS011;11910;52.086;21.066;2023-12-07T10:05:14;60.85;;;34.38;;
23474;SDS011;11910;52.086;21.066;2023-12-07T10:07:42;58.67;;;35.47;;
23474;SDS011;11910;52.086;21.066;2023-12-07T10:10:09;56.08;;;35.15;;
23474;SDS011;11910;52.086;21.066;2023-12-07T10:12:45;54.72;;;33.53;;
23474;SDS011;11910;52.086;21.066;2023-12-07T10:15:18;58.58;;;35.30;;
23474;SDS011;11910;52.086;21.066;2023-12-07T10:20:15;57.90;;;34.50;;
23474;SDS011;11910;52.086;21.066;2023-12-07T10:22:48;54.03;;;33.15;;
23474;SDS011;11910;52.086;21.066;2023-12-07T10:25:34;56.45;;;34.83;;
23474;SDS011;11910;52.086;21.066;2023-12-07T10:30:32;57.13;;;33.60;;
23474;SDS011;11910;52.086;21.066;2023-12-07T10:32:58;57.40;;;35.63;;
23474;SDS011;11910;52.086;21.066;2023-12-07T10:35:24;57.75;;;34.47;;
23474;SDS011;11910;52.086;21.066;2023-12-07T10:37:50;59.75;;;35.50;;
23474;SDS011;11910;52.086;21.066;2023-12-07T10:40:16;60.53;;;35.17;;
23474;SDS011;11910;52.086;21.066;2023-12-07T10:42:46;56.53;;;34.40;;
23474;SDS011;11910;52.086;21.066;2023-12-07T10:45:13;61.88;;;36.17;;
23474;SDS011;11910;52.086;21.066;2023-12-07T10:47:40;65.95;;;37.75;;
23474;SDS011;11910;52.086;21.066;2023-12-07T10:50:09;58.70;;;35.47;;
23474;SDS011;11910;52.086;21.066;2023-12-07T10:52:44;57.08;;;35.60;;
23474;SDS011;11910;52.086;21.066;2023-12-07T10:55:16;60.67;;;36.50;;
23474;SDS011;11910;52.086;21.066;2023-12-07T10:57:44;57.75;;;35.90;;
23474;SDS011;11910;52.086;21.066;2023-12-07T11:00:12;59.63;;;37.10;;
23474;SDS011;11910;52.086;21.066;2023-12-07T11:02:38;61.50;;;36.90;;
23474;SDS011;11910;52.086;21.066;2023-12-07T11:05:06;61.20;;;37.90;;
23474;SDS011;11910;52.086;21.066;2023-12-07T11:07:42;62.40;;;38.17;;
23474;SDS011;11910;52.086;21.066;2023-12-07T11:10:23;61.70;;;37.67;;
23474;SDS011;11910;52.086;21.066;2023-12-07T11:12:58;62.47;;;38.08;;
23474;SDS011;11910;52.086;21.066;2023-12-07T11:15:33;62.47;;;38.15;;
23474;SDS011;11910;52.086;21.066;2023-12-07T11:18:01;60.03;;;36.97;;
23474;SDS011;11910;52.086;21.066;2023-12-07T11:23:09;73.70;;;41.97;;
23474;SDS011;11910;52.086;21.066;2023-12-07T11:25:36;64.35;;;38.17;;
23474;SDS011;11910;52.086;21.066;2023-12-07T11:28:03;60.08;;;37.75;;
23474;SDS011;11910;52.086;21.066;2023-12-07T11:30:32;61.45;;;37.03;;
23474;SDS011;11910;52.086;21.066;2023-12-07T11:33:00;67.60;;;39.67;;
23474;SDS011;11910;52.086;21.066;2023-12-07T11:35:29;66.15;;;39.65;;
23474;SDS011;11910;52.086;21.066;2023-12-07T11:38:01;66.25;;;39.25;;
23474;SDS011;11910;52.086;21.066;2023-12-07T11:40:42;67.57;;;40.72;;
23474;SDS011;11910;52.086;21.066;2023-12-07T11:45:47;58.67;;;34.85;;
23474;SDS011;11910;52.086;21.066;2023-12-07T11:48:14;60.22;;;37.53;;
23474;SDS011;11910;52.086;21.066;2023-12-07T11:53:35;61.47;;;36.40;;
23474;SDS011;11910;52.086;21.066;2023-12-07T11:56:02;59.88;;;36.33;;
23474;SDS011;11910;52.086;21.066;2023-12-07T11:58:33;62.47;;;37.25;;
23474;SDS011;11910;52.086;21.066;2023-12-07T12:01:00;66.43;;;37.30;;
23474;SDS011;11910;52.086;21.066;2023-12-07T12:03:27;68.40;;;40.30;;
23474;SDS011;11910;52.086;21.066;2023-12-07T12:05:53;76.00;;;42.17;;
23474;SDS011;11910;52.086;21.066;2023-12-07T12:08:19;63.50;;;38.35;;
23474;SDS011;11910;52.086;21.066;2023-12-07T12:10:46;72.05;;;40.08;;
23474;SDS011;11910;52.086;21.066;2023-12-07T12:13:12;69.30;;;39.47;;
23474;SDS011;11910;52.086;21.066;2023-12-07T12:15:39;71.18;;;39.85;;
23474;SDS011;11910;52.086;21.066;2023-12-07T12:18:05;64.93;;;38.08;;
23474;SDS011;11910;52.086;21.066;2023-12-07T12:20:31;63.67;;;37.90;;
23474;SDS011;11910;52.086;21.066;2023-12-07T12:22:57;65.25;;;39.67;;
23474;SDS011;11910;52.086;21.066;2023-12-07T12:25:25;71.57;;;41.40;;
23474;SDS011;11910;52.086;21.066;2023-12-07T12:27:59;85.43;;;44.50;;
23474;SDS011;11910;52.086;21.066;2023-12-07T12:30:28;105.13;;;50.20;;
23474;SDS011;11910;52.086;21.066;2023-12-07T12:32:55;85.88;;;45.10;;
23474;SDS011;11910;52.086;21.066;2023-12-07T12:35:21;103.28;;;49.35;;
23474;SDS011;11910;52.086;21.066;2023-12-07T12:37:47;77.70;;;42.85;;
23474;SDS011;11910;52.086;21.066;2023-12-07T12:40:18;79.35;;;43.63;;
23474;SDS011;11910;52.086;21.066;2023-12-07T12:42:50;74.80;;;42.10;;
23474;SDS011;11910;52.086;21.066;2023-12-07T12:45:17;72.88;;;41.20;;
23474;SDS011;11910;52.086;21.066;2023-12-07T12:47:43;72.93;;;42.38;;
23474;SDS011;11910;52.086;21.066;2023-12-07T12:50:10;71.80;;;41.15;;
23474;SDS011;11910;52.086;21.066;2023-12-07T12:52:37;66.45;;;39.75;;
23474;SDS011;11910;52.086;21.066;2023-12-07T12:55:08;72.15;;;40.17;;
23474;SDS011;11910;52.086;21.066;2023-12-07T12:57:35;74.93;;;42.10;;
23474;SDS011;11910;52.086;21.066;2023-12-07T13:00:03;79.60;;;42.58;;
23474;SDS011;11910;52.086;21.066;2023-12-07T13:02:29;76.40;;;42.83;;
23474;SDS011;11910;52.086;21.066;2023-12-07T13:04:54;74.70;;;42.75;;
23474;SDS011;11910;52.086;21.066;2023-12-07T13:07:21;71.15;;;42.58;;
23474;SDS011;11910;52.086;21.066;2023-12-07T13:09:47;73.00;;;40.80;;
23474;SDS011;11910;52.086;21.066;2023-12-07T13:12:12;70.50;;;40.83;;
23474;SDS011;11910;52.086;21.066;2023-12-07T13:14:38;72.22;;;41.58;;
23474;SDS011;11910;52.086;21.066;2023-12-07T13:17:05;68.93;;;42.15;;
23474;SDS011;11910;52.086;21.066;2023-12-07T13:19:33;74.55;;;43.50;;
23474;SDS011;11910;52.086;21.066;2023-12-07T13:21:59;88.90;;;47.00;;
23474;SDS011;11910;52.086;21.066;2023-12-07T13:24:25;86.85;;;45.63;;
23474;SDS011;11910;52.086;21.066;2023-12-07T13:26:51;77.53;;;43.55;;
23474;SDS011;11910;52.086;21.066;2023-12-07T13:29:16;91.07;;;46.67;;
23474;SDS011;11910;52.086;21.066;2023-12-07T13:31:42;74.65;;;43.75;;
23474;SDS011;11910;52.086;21.066;2023-12-07T13:34:08;88.13;;;45.63;;
23474;SDS011;11910;52.086;21.066;2023-12-07T13:36:33;101.30;;;48.35;;
23474;SDS011;11910;52.086;21.066;2023-12-07T13:39:00;94.75;;;47.92;;
23474;SDS011;11910;52.086;21.066;2023-12-07T13:41:27;75.28;;;42.75;;
23474;SDS011;11910;52.086;21.066;2023-12-07T13:43:53;74.57;;;43.47;;
23474;SDS011;11910;52.086;21.066;2023-12-07T13:46:19;77.68;;;43.88;;
23474;SDS011;11910;52.086;21.066;2023-12-07T13:48:45;74.43;;;43.90;;
23474;SDS011;11910;52.086;21.066;2023-12-07T13:51:11;79.22;;;44.50;;
23474;SDS011;11910;52.086;21.066;2023-12-07T13:53:37;77.10;;;45.00;;
23474;SDS011;11910;52.086;21.066;2023-12-07T13:56:03;90.70;;;46.90;;
23474;SDS011;11910;52.086;21.066;2023-12-07T13:58:30;86.03;;;46.45;;
23474;SDS011;11910;52.086;21.066;2023-12-07T14:00:56;70.90;;;42.40;;
23474;SDS011;11910;52.086;21.066;2023-12-07T14:03:21;71.75;;;44.33;;
23474;SDS011;11910;52.086;21.066;2023-12-07T14:05:48;71.03;;;42.90;;
23474;SDS011;11910;52.086;21.066;2023-12-07T14:08:14;77.20;;;45.30;;
23474;SDS011;11910;52.086;21.066;2023-12-07T14:10:40;75.82;;;42.90;;
23474;SDS011;11910;52.086;21.066;2023-12-07T14:13:05;77.60;;;44.53;;
23474;SDS011;11910;52.086;21.066;2023-12-07T14:15:31;73.60;;;43.08;;
23474;SDS011;11910;52.086;21.066;2023-12-07T14:18:00;77.18;;;43.70;;
23474;SDS011;11910;52.086;21.066;2023-12-07T14:20:26;70.97;;;41.80;;
23474;SDS011;11910;52.086;21.066;2023-12-07T14:22:53;78.50;;;43.38;;